createdAt,value
2022-12-01T00:01:32.008Z,33.15
2022-12-01T00:03:58.777Z,43.72
2022-12-01T00:06:25.581Z,37.38
2022-12-01T00:09:17.965Z,41.97
2022-12-01T00:11:50.269Z,41.78
2022-12-01T00:14:17.348Z,42.97
2022-12-01T00:16:45.523Z,46.13
2022-12-01T00:19:12.352Z,42.00
2022-12-01T00:21:40.335Z,39.78
2022-12-01T00:24:11.272Z,35.65
2022-12-01T00:26:40.359Z,39.70
2022-12-01T00:29:08.342Z,41.45
2022-12-01T00:31:36.628Z,38.42
2022-12-01T00:34:10.800Z,34.50
2022-12-01T00:36:39.979Z,36.35
2022-12-01T00:39:09.485Z,37.20
2022-12-01T00:41:37.284Z,39.92
2022-12-01T00:44:04.312Z,39.42
2022-12-01T00:46:32.561Z,34.78
2022-12-01T00:49:00.529Z,33.50
2022-12-01T00:51:27.418Z,36.30
2022-12-01T00:53:55.362Z,37.50
2022-12-01T00:56:23.464Z,29.73
2022-12-01T00:58:50.196Z,33.00
2022-12-01T01:01:18.313Z,36.83
2022-12-01T01:03:46.624Z,37.42
2022-12-01T01:06:13.720Z,40.17
2022-12-01T01:08:42.474Z,33.00
2022-12-01T01:11:09.476Z,33.13
2022-12-01T01:13:37.003Z,38.70
2022-12-01T01:16:07.757Z,37.17
2022-12-01T01:18:34.957Z,39.55
2022-12-01T01:21:15.440Z,37.65
2022-12-01T01:23:43.675Z,38.50
2022-12-01T01:26:17.166Z,37.35
2022-12-01T01:28:46.620Z,36.92
2022-12-01T01:31:17.085Z,38.78
2022-12-01T01:33:45.398Z,33.95
2022-12-01T01:36:14.205Z,33.22
2022-12-01T01:38:42.593Z,36.50
2022-12-01T01:41:09.791Z,37.22
2022-12-01T01:43:48.248Z,39.03
2022-12-01T01:46:18.568Z,39.80
2022-12-01T01:48:54.458Z,33.15
2022-12-01T01:51:48.739Z,31.65
2022-12-01T01:54:23.750Z,29.25
2022-12-01T01:56:54.973Z,32.88
2022-12-01T01:59:29.872Z,39.80
2022-12-01T02:02:08.399Z,29.35
2022-12-01T02:04:39.213Z,31.90
2022-12-01T02:07:09.373Z,28.35
2022-12-01T02:09:36.539Z,32.10
2022-12-01T02:15:16.735Z,29.70
2022-12-01T02:18:11.411Z,24.17
2022-12-01T02:20:58.240Z,28.40
2022-12-01T02:23:48.299Z,30.17
2022-12-01T02:26:37.435Z,27.52
2022-12-01T02:29:35.627Z,26.13
2022-12-01T02:32:34.961Z,24.75
2022-12-01T02:35:09.427Z,27.02
2022-12-01T02:37:54.345Z,30.60
2022-12-01T02:40:30.409Z,31.90
2022-12-01T02:43:19.565Z,26.33
2022-12-01T02:45:56.207Z,33.85
2022-12-01T02:48:36.202Z,27.73
2022-12-01T02:51:28.894Z,37.35
2022-12-01T02:53:59.294Z,27.15
2022-12-01T02:56:26.361Z,21.48
2022-12-01T02:58:53.241Z,22.27
2022-12-01T03:01:52.145Z,26.27
2022-12-01T03:04:26.826Z,19.92
2022-12-01T03:07:19.536Z,21.52
2022-12-01T03:09:56.704Z,22.38
2022-12-01T03:12:44.277Z,20.20
2022-12-01T03:15:35.811Z,19.85
2022-12-01T03:18:21.868Z,17.88
2022-12-01T03:21:12.955Z,15.15
2022-12-01T03:23:47.164Z,20.30
2022-12-01T03:26:21.405Z,17.65
2022-12-01T03:29:00.349Z,24.02
2022-12-01T03:31:33.473Z,18.02
2022-12-01T03:34:11.051Z,15.48
2022-12-01T03:36:49.928Z,22.95
2022-12-01T03:39:23.258Z,19.83
2022-12-01T03:41:59.946Z,21.95
2022-12-01T03:44:41.383Z,16.38
2022-12-01T03:47:14.607Z,18.02
2022-12-01T03:49:43.977Z,18.38
2022-12-01T03:52:36.719Z,18.52
2022-12-01T03:55:23.018Z,23.75
2022-12-01T03:58:04.185Z,25.98
2022-12-01T04:00:33.786Z,24.27
2022-12-01T04:03:04.163Z,23.17
2022-12-01T04:05:32.869Z,25.92
2022-12-01T04:08:01.558Z,23.88
2022-12-01T04:10:28.429Z,17.65
2022-12-01T04:12:59.543Z,20.50
2022-12-01T04:15:27.560Z,21.83
2022-12-01T04:17:55.882Z,21.20
2022-12-01T04:20:22.972Z,23.58
2022-12-01T04:22:49.730Z,21.98
2022-12-01T04:25:19.274Z,19.77
2022-12-01T04:27:47.355Z,20.50
2022-12-01T04:30:14.350Z,16.05
2022-12-01T04:32:45.005Z,24.63
2022-12-01T04:35:13.279Z,16.55
2022-12-01T04:37:40.958Z,19.48
2022-12-01T04:40:11.337Z,25.45
2022-12-01T04:42:39.305Z,22.55
2022-12-01T04:45:06.499Z,18.13
2022-12-01T04:47:36.275Z,17.38
2022-12-01T04:50:05.664Z,21.90
2022-12-01T04:52:35.437Z,19.25
2022-12-01T04:55:03.492Z,15.85
2022-12-01T04:57:31.507Z,20.27
2022-12-01T04:59:58.319Z,19.63
2022-12-01T05:02:26.507Z,17.45
2022-12-01T05:04:55.008Z,16.45
2022-12-01T05:07:21.853Z,23.67
2022-12-01T05:09:50.447Z,29.80
2022-12-01T05:12:19.313Z,23.15
2022-12-01T05:14:48.119Z,24.63
2022-12-01T05:17:16.224Z,24.05
2022-12-01T05:20:04.693Z,22.02
2022-12-01T05:23:03.725Z,20.92
2022-12-01T05:25:21.118Z,27.92
2022-12-01T05:27:49.142Z,26.23
2022-12-01T05:30:17.275Z,22.52
2022-12-01T05:32:44.025Z,21.42
2022-12-01T05:35:12.803Z,25.38
2022-12-01T05:37:41.161Z,26.40
2022-12-01T05:40:09.963Z,23.60
2022-12-01T05:42:38.140Z,25.65
2022-12-01T05:45:05.295Z,23.98
2022-12-01T05:47:33.229Z,21.88
2022-12-01T05:50:05.506Z,29.17
2022-12-01T05:52:35.836Z,25.40
2022-12-01T05:55:04.224Z,30.67
2022-12-01T05:57:32.704Z,26.98
2022-12-01T06:00:01.269Z,23.77
2022-12-01T06:02:38.472Z,26.77
2022-12-01T06:05:05.863Z,27.40
2022-12-01T06:07:35.603Z,27.40
2022-12-01T06:10:02.850Z,26.25
2022-12-01T06:12:30.869Z,28.98
2022-12-01T06:14:59.302Z,30.83
2022-12-01T06:17:26.094Z,36.40
2022-12-01T06:19:52.828Z,32.63
2022-12-01T06:22:21.270Z,41.17
2022-12-01T06:24:47.987Z,34.72
2022-12-01T06:27:16.093Z,30.83
2022-12-01T06:29:44.268Z,30.63
2022-12-01T06:32:11.502Z,34.05
2022-12-01T06:34:38.334Z,38.42
2022-12-01T06:37:05.090Z,30.25
2022-12-01T06:39:31.983Z,39.75
2022-12-01T06:41:58.754Z,29.40
2022-12-01T06:44:25.606Z,35.65
2022-12-01T06:46:53.716Z,31.52
2022-12-01T06:49:20.707Z,37.70
2022-12-01T06:51:49.772Z,37.63
2022-12-01T06:54:17.850Z,30.05
2022-12-01T06:56:45.970Z,30.52
2022-12-01T06:59:14.305Z,38.80
2022-12-01T07:01:41.466Z,40.30
2022-12-01T07:04:08.335Z,29.90
2022-12-01T07:06:35.085Z,43.40
2022-12-01T07:09:03.761Z,35.13
2022-12-01T07:11:32.183Z,24.98
2022-12-01T07:13:59.052Z,40.30
2022-12-01T07:16:27.422Z,30.42
2022-12-01T07:18:57.137Z,33.22
2022-12-01T07:21:24.805Z,30.65
2022-12-01T07:23:51.641Z,33.33
2022-12-01T07:26:19.768Z,36.60
2022-12-01T07:28:46.532Z,26.73
2022-12-01T07:31:18.769Z,32.10
2022-12-01T07:33:46.904Z,35.05
2022-12-01T07:36:14.806Z,42.78
2022-12-01T07:38:41.898Z,28.15
2022-12-01T07:41:16.471Z,31.80
2022-12-01T07:43:43.458Z,39.13
2022-12-01T07:46:22.694Z,27.13
2022-12-01T07:48:56.728Z,31.02
2022-12-01T07:53:55.076Z,17.63
2022-12-01T07:56:22.872Z,27.77
2022-12-01T07:58:51.577Z,29.00
2022-12-01T08:01:22.793Z,23.08
2022-12-01T08:03:51.185Z,25.30
2022-12-01T08:06:18.867Z,26.25
2022-12-01T08:08:46.521Z,28.20
2022-12-01T08:11:16.374Z,68.40
2022-12-01T08:13:45.144Z,36.40
2022-12-01T08:16:19.627Z,29.67
2022-12-01T08:18:48.102Z,27.77
2022-12-01T08:21:19.430Z,30.55
2022-12-01T08:23:48.940Z,27.10
2022-12-01T08:26:20.083Z,28.00
2022-12-01T08:28:48.978Z,23.65
2022-12-01T08:31:20.665Z,28.73
2022-12-01T08:33:49.555Z,28.80
2022-12-01T08:36:17.467Z,33.17
2022-12-01T08:38:47.550Z,23.77
2022-12-01T08:41:15.362Z,31.38
2022-12-01T08:44:01.703Z,38.95
2022-12-01T08:46:35.108Z,37.38
2022-12-01T08:49:05.258Z,28.63
2022-12-01T08:51:32.566Z,35.78
2022-12-01T08:54:00.581Z,35.65
2022-12-01T08:56:32.338Z,30.58
2022-12-01T08:59:00.466Z,39.60
2022-12-01T09:01:29.162Z,60.33
2022-12-01T09:04:08.120Z,57.53
2022-12-01T09:06:45.242Z,47.08
2022-12-01T09:09:16.396Z,31.45
2022-12-01T09:11:45.990Z,37.22
2022-12-01T09:14:14.694Z,30.67
2022-12-01T09:16:44.656Z,32.65
2022-12-01T09:19:13.326Z,35.92
2022-12-01T09:21:43.349Z,41.85
2022-12-01T09:24:11.289Z,27.50
2022-12-01T09:26:39.013Z,29.50
2022-12-01T09:29:10.429Z,29.08
2022-12-01T09:31:38.952Z,28.85
2022-12-01T09:34:13.100Z,36.28
2022-12-01T09:36:40.226Z,36.65
2022-12-01T09:39:08.982Z,36.67
2022-12-01T09:41:45.125Z,40.92
2022-12-01T09:44:28.010Z,29.92
2022-12-01T09:47:26.463Z,29.00
2022-12-01T09:50:03.575Z,31.20
2022-12-01T09:52:38.790Z,34.80
2022-12-01T09:55:13.586Z,36.30
2022-12-01T09:57:43.617Z,33.67
2022-12-01T10:00:19.309Z,33.60
2022-12-01T10:03:15.072Z,32.00
2022-12-01T10:06:25.161Z,27.33
2022-12-01T10:08:46.682Z,25.02
2022-12-01T10:11:30.027Z,34.15
2022-12-01T10:13:58.129Z,30.48
2022-12-01T10:16:34.539Z,25.80
2022-12-01T10:19:16.450Z,34.00
2022-12-01T10:22:01.208Z,30.38
2022-12-01T10:24:27.976Z,29.80
2022-12-01T10:27:24.010Z,25.02
2022-12-01T10:30:18.693Z,27.55
2022-12-01T10:33:00.744Z,26.00
2022-12-01T10:35:36.116Z,25.45
2022-12-01T10:38:14.346Z,31.42
2022-12-01T10:40:44.173Z,31.50
2022-12-01T10:43:11.054Z,34.75
2022-12-01T10:45:45.136Z,29.15
2022-12-01T10:48:22.582Z,36.85
2022-12-01T10:50:56.878Z,32.25
2022-12-01T10:53:32.426Z,26.40
2022-12-01T10:56:05.826Z,27.63
2022-12-01T10:58:42.265Z,25.45
2022-12-01T11:01:20.582Z,23.95
2022-12-01T11:04:01.844Z,27.15
2022-12-01T11:06:30.458Z,29.63
2022-12-01T11:09:03.708Z,34.85
2022-12-01T11:11:33.549Z,33.75
2022-12-01T11:16:48.867Z,31.65
2022-12-01T11:19:30.949Z,35.58
2022-12-01T11:22:00.948Z,22.67
2022-12-01T11:24:56.365Z,29.95
2022-12-01T11:27:26.317Z,28.98
2022-12-01T11:29:59.064Z,22.95
2022-12-01T11:32:33.331Z,29.23
2022-12-01T11:35:05.892Z,63.35
2022-12-01T11:37:38.129Z,37.47
2022-12-01T11:40:13.621Z,30.13
2022-12-01T11:42:46.245Z,24.48
2022-12-01T11:45:40.026Z,35.33
2022-12-01T11:48:27.585Z,31.23
2022-12-01T11:51:21.610Z,27.58
2022-12-01T11:53:48.812Z,26.25
2022-12-01T11:56:17.915Z,21.42
2022-12-01T11:58:48.823Z,24.95
2022-12-01T12:01:29.237Z,39.03
2022-12-01T12:04:24.882Z,41.38
2022-12-01T12:07:18.905Z,28.20
2022-12-01T12:10:02.647Z,24.58
2022-12-01T12:12:41.186Z,32.65
2022-12-01T12:15:40.258Z,31.15
2022-12-01T12:18:14.136Z,24.08
2022-12-01T12:21:06.446Z,29.25
2022-12-01T12:23:53.389Z,31.88
2022-12-01T12:26:35.009Z,34.00
2022-12-01T12:29:28.224Z,31.73
2022-12-01T12:32:26.031Z,26.10
2022-12-01T12:35:04.616Z,27.83
2022-12-01T12:37:41.862Z,33.03
2022-12-01T12:40:47.100Z,25.35
2022-12-01T12:43:56.308Z,23.50
2022-12-01T12:46:57.829Z,27.30
2022-12-01T12:49:30.447Z,34.53
2022-12-01T12:52:07.799Z,28.27
2022-12-01T12:55:19.470Z,29.25
2022-12-01T12:57:55.098Z,23.83
2022-12-01T13:00:26.131Z,26.10
2022-12-01T13:05:28.645Z,21.38
2022-12-01T13:08:23.098Z,29.63
2022-12-01T13:11:04.500Z,30.20
2022-12-01T13:14:06.992Z,30.30
2022-12-01T13:16:41.736Z,31.67
2022-12-01T13:19:16.360Z,23.27
2022-12-01T13:21:46.861Z,27.02
2022-12-01T13:24:23.401Z,22.27
2022-12-01T13:27:11.747Z,27.58
2022-12-01T13:29:46.487Z,21.92
2022-12-01T13:32:32.039Z,24.70
2022-12-01T13:35:03.098Z,20.45
2022-12-01T13:37:38.295Z,23.55
2022-12-01T13:40:20.160Z,34.30
2022-12-01T13:43:20.348Z,29.88
2022-12-01T13:45:49.514Z,26.25
2022-12-01T13:48:27.430Z,27.40
2022-12-01T13:50:57.411Z,22.52
2022-12-01T13:53:34.384Z,25.65
2022-12-01T13:56:03.991Z,28.27
2022-12-01T13:58:32.784Z,28.95
2022-12-01T14:01:23.165Z,23.75
2022-12-01T14:04:01.155Z,25.20
2022-12-01T14:06:46.390Z,26.48
2022-12-01T14:09:21.965Z,24.95
2022-12-01T14:12:01.886Z,23.67
2022-12-01T14:14:37.240Z,21.13
2022-12-01T14:17:05.931Z,25.75
2022-12-01T14:19:32.630Z,30.30
2022-12-01T14:22:01.199Z,27.00
2022-12-01T14:24:43.524Z,37.92
2022-12-01T14:27:12.067Z,29.00
2022-12-01T14:29:44.247Z,37.40
2022-12-01T14:32:17.964Z,27.88
2022-12-01T14:34:45.383Z,32.65
2022-12-01T14:37:19.029Z,36.28
2022-12-01T14:40:05.927Z,24.83
2022-12-01T14:42:58.211Z,26.77
2022-12-01T14:45:40.262Z,26.92
2022-12-01T14:48:21.173Z,19.80
2022-12-01T14:50:51.281Z,28.25
2022-12-01T14:53:27.119Z,34.83
2022-12-01T14:55:59.359Z,23.92
2022-12-01T14:58:33.038Z,30.05
2022-12-01T15:01:08.301Z,28.50
2022-12-01T15:03:47.188Z,35.03
2022-12-01T15:06:23.397Z,24.45
2022-12-01T15:09:33.981Z,26.60
2022-12-01T15:12:09.082Z,23.65
2022-12-01T15:14:46.945Z,27.75
2022-12-01T15:17:33.434Z,28.33
2022-12-01T15:20:01.754Z,28.98
2022-12-01T15:22:31.206Z,21.95
2022-12-01T15:25:34.917Z,25.35
2022-12-01T15:28:35.243Z,34.67
2022-12-01T15:31:09.791Z,24.58
2022-12-01T15:33:39.693Z,21.88
2022-12-01T15:36:07.770Z,23.65
2022-12-01T15:38:37.088Z,22.17
2022-12-01T15:41:28.520Z,20.17
2022-12-01T15:43:56.955Z,19.70
2022-12-01T15:46:29.497Z,23.15
2022-12-01T15:49:32.755Z,23.25
2022-12-01T15:52:12.259Z,24.58
2022-12-01T15:54:40.867Z,23.33
2022-12-01T15:57:09.129Z,24.35
2022-12-01T15:59:44.328Z,23.23
2022-12-01T16:02:20.405Z,22.90
2022-12-01T16:04:49.808Z,24.85
2022-12-01T16:07:16.814Z,30.27
2022-12-01T16:09:59.378Z,35.53
2022-12-01T16:12:32.133Z,29.77
2022-12-01T16:15:11.205Z,25.17
2022-12-01T16:17:48.246Z,26.17
2022-12-01T16:20:35.974Z,24.30
2022-12-01T16:23:11.035Z,25.80
2022-12-01T16:25:43.293Z,32.33
2022-12-01T16:28:35.710Z,23.42
2022-12-01T16:36:06.505Z,27.30
2022-12-01T16:38:34.736Z,19.48
2022-12-01T16:41:13.955Z,18.42
2022-12-01T16:43:59.126Z,25.52
2022-12-01T16:46:30.124Z,25.70
2022-12-01T16:48:58.178Z,27.15
2022-12-01T16:51:35.613Z,25.48
2022-12-01T16:54:17.032Z,39.30
2022-12-01T16:56:43.832Z,31.25
2022-12-01T16:59:11.830Z,27.67
2022-12-01T17:01:40.074Z,30.88
2022-12-01T17:04:07.936Z,23.10
2022-12-01T17:06:35.849Z,29.25
2022-12-01T17:09:02.596Z,23.70
2022-12-01T17:11:31.016Z,21.10
2022-12-01T17:13:57.778Z,24.33
2022-12-01T17:16:26.023Z,28.33
2022-12-01T17:18:54.256Z,26.00
2022-12-01T17:21:21.090Z,26.83
2022-12-01T17:23:49.114Z,33.38
2022-12-01T17:26:19.064Z,28.35
2022-12-01T17:28:46.846Z,24.95
2022-12-01T17:31:15.180Z,33.03
2022-12-01T17:33:43.106Z,26.40
2022-12-01T17:36:14.529Z,27.17
2022-12-01T17:38:44.702Z,25.33
2022-12-01T17:41:17.429Z,25.42
2022-12-01T17:43:45.442Z,27.00
2022-12-01T17:46:13.018Z,34.58
2022-12-01T17:48:43.214Z,33.38
2022-12-01T17:51:12.643Z,35.27
2022-12-01T17:53:41.172Z,33.30
2022-12-01T17:56:10.122Z,24.48
2022-12-01T17:58:37.610Z,30.02
2022-12-01T18:01:06.869Z,28.60
2022-12-01T18:03:35.167Z,21.35
2022-12-01T18:06:02.546Z,22.17
2022-12-01T18:08:31.642Z,29.98
2022-12-01T18:11:08.942Z,45.67
2022-12-01T18:13:47.045Z,33.40
2022-12-01T18:16:18.263Z,28.20
2022-12-01T18:18:46.655Z,29.40
2022-12-01T18:21:15.673Z,26.40
2022-12-01T18:23:52.825Z,29.05
2022-12-01T18:26:22.302Z,31.92
2022-12-01T18:29:01.016Z,25.42
2022-12-01T18:31:30.345Z,26.58
2022-12-01T18:34:02.646Z,28.30
2022-12-01T18:36:34.639Z,29.45
2022-12-01T18:39:04.434Z,35.13
2022-12-01T18:41:31.580Z,25.77
2022-12-01T18:44:01.635Z,33.40
2022-12-01T18:46:30.602Z,26.75
2022-12-01T18:49:01.940Z,27.48
2022-12-01T18:51:33.001Z,28.60
2022-12-01T18:54:02.089Z,42.28
2022-12-01T18:56:29.547Z,40.85
2022-12-01T18:59:01.962Z,32.25
2022-12-01T19:01:33.257Z,31.17
2022-12-01T19:04:01.117Z,24.75
2022-12-01T19:06:30.027Z,23.60
2022-12-01T19:09:00.135Z,30.60
2022-12-01T19:11:28.779Z,20.65
2022-12-01T19:13:57.917Z,27.00
2022-12-01T19:16:25.046Z,22.90
2022-12-01T19:18:53.924Z,23.73
2022-12-01T19:21:22.731Z,19.98
2022-12-01T19:23:52.917Z,22.15
2022-12-01T19:26:22.208Z,32.85
2022-12-01T19:28:50.918Z,25.67
2022-12-01T19:31:23.387Z,23.58
2022-12-01T19:33:52.567Z,21.55
2022-12-01T19:36:23.136Z,25.30
2022-12-01T19:38:52.445Z,17.77
2022-12-01T19:41:20.996Z,19.63
2022-12-01T19:43:48.365Z,28.90
2022-12-01T19:46:19.702Z,18.73
2022-12-01T19:53:12.221Z,22.02
2022-12-01T19:55:39.343Z,14.95
2022-12-01T19:58:06.109Z,16.35
2022-12-01T20:00:32.904Z,27.35
2022-12-01T20:03:00.445Z,22.77
2022-12-01T20:05:27.620Z,28.13
2022-12-01T20:07:54.421Z,105.72
2022-12-01T20:10:21.278Z,33.78
2022-12-01T20:12:48.273Z,19.90
2022-12-01T20:15:15.904Z,19.23
2022-12-01T20:17:43.128Z,18.13
2022-12-01T20:20:11.476Z,25.35
2022-12-01T20:22:38.588Z,23.40
2022-12-01T20:25:10.597Z,26.42
2022-12-01T20:27:37.799Z,22.63
2022-12-01T20:30:05.403Z,18.05
2022-12-01T20:32:33.359Z,19.55
2022-12-01T20:35:00.216Z,21.23
2022-12-01T20:37:27.014Z,17.77
2022-12-01T20:39:53.823Z,22.25
2022-12-01T20:42:22.262Z,14.10
2022-12-01T20:44:49.274Z,16.98
2022-12-01T20:47:18.673Z,17.15
2022-12-01T20:49:45.525Z,14.32
2022-12-01T20:52:12.296Z,20.60
2022-12-01T20:54:39.317Z,15.70
2022-12-01T20:57:06.224Z,18.67
2022-12-01T20:59:34.810Z,17.05
2022-12-01T21:02:01.817Z,18.17
2022-12-01T21:04:28.610Z,26.45
2022-12-01T21:06:57.216Z,17.20
2022-12-01T21:09:24.418Z,20.42
2022-12-01T21:12:10.340Z,21.33
2022-12-01T21:14:44.437Z,21.98
2022-12-01T21:17:35.152Z,21.02
2022-12-01T21:20:08.780Z,19.05
2022-12-01T21:22:36.431Z,14.68
2022-12-01T21:25:11.987Z,22.10
2022-12-01T21:27:38.887Z,17.08
2022-12-01T21:30:16.910Z,26.92
2022-12-01T21:32:45.539Z,17.10
2022-12-01T21:35:22.595Z,15.15
2022-12-01T21:37:50.717Z,19.27
2022-12-01T21:40:25.648Z,14.30
2022-12-01T21:42:52.822Z,14.45
2022-12-01T21:45:27.305Z,15.82
2022-12-01T21:48:00.864Z,12.13
2022-12-01T21:50:27.865Z,18.27
2022-12-01T21:52:54.740Z,16.45
2022-12-01T21:55:21.606Z,15.45
2022-12-01T21:57:50.160Z,14.70
2022-12-01T22:00:36.987Z,13.50
2022-12-01T22:03:09.789Z,16.15
2022-12-01T22:06:01.436Z,11.88
2022-12-01T22:08:38.252Z,16.90
2022-12-01T22:11:14.899Z,21.17
2022-12-01T22:13:44.937Z,14.07
2022-12-01T22:16:15.733Z,20.50
2022-12-01T22:18:47.456Z,17.55
2022-12-01T22:21:23.476Z,17.27
2022-12-01T22:23:57.168Z,16.80
2022-12-01T22:26:25.143Z,12.65
2022-12-01T22:28:56.042Z,12.30
2022-12-01T22:31:23.068Z,16.33
2022-12-01T22:34:03.113Z,13.02
2022-12-01T22:36:33.297Z,14.20
2022-12-01T22:39:00.819Z,12.23
2022-12-01T22:41:28.709Z,12.18
2022-12-01T22:43:56.986Z,15.68
2022-12-01T22:46:38.165Z,12.63
2022-12-01T22:51:46.792Z,13.88
2022-12-01T22:54:16.352Z,11.77
2022-12-01T22:57:01.897Z,12.50
2022-12-01T22:59:36.229Z,15.55
2022-12-01T23:02:25.012Z,12.25
2022-12-01T23:04:58.660Z,14.85
2022-12-01T23:07:37.893Z,17.92
2022-12-01T23:10:06.562Z,14.45
2022-12-01T23:12:35.772Z,15.55
2022-12-01T23:15:34.745Z,13.68
2022-12-01T23:18:29.606Z,13.73
2022-12-01T23:20:58.500Z,13.13
2022-12-01T23:23:37.206Z,14.55
2022-12-01T23:26:07.492Z,14.10
2022-12-01T23:28:38.900Z,17.73
2022-12-01T23:31:05.960Z,15.00
2022-12-01T23:33:34.988Z,12.90
2022-12-01T23:36:25.775Z,20.10
2022-12-01T23:38:57.425Z,15.27
2022-12-01T23:41:35.641Z,15.38
2022-12-01T23:44:11.832Z,13.32
2022-12-01T23:46:38.782Z,13.18
2022-12-01T23:49:12.828Z,12.73
2022-12-01T23:51:45.366Z,15.68
2022-12-01T23:54:29.982Z,15.63
2022-12-01T23:57:05.463Z,11.50
2022-12-01T23:59:36.895Z,16.98
